Hazelhurst, Wisconsin
Current Conditions -  °F | °C
As of 8:35 PM on Thursday 20 Nov 2014 (Local Time) from KARV Reporting Station
Scattered Clouds Scattered Clouds  
Wind Chill: -1°   Ceiling: Unl
Heat Index: 11°   Visibility: 10mi
Dew Point:   Wind: 9mph
Humidity: 70%   Direction: 290°WNW
Pressure: 30.08"   Gusts: NA
Location:  45.81°N, 89.73°W
Report Text: KARV 210235Z AUTO 29008KT 10SM SCT035 M11/M16 A3008 RMK AO2 T11151160
Loading
Personal Weather Stations






























Interactive Weather Map New forecast layout! Learn more

10-Day Weather Forecast

Advertisements
Track Severe Weather on mobile